sensor_id;sensor_type;location;lat;lon;timestamp;pressure;altitude;pressure_sealevel;temperature;humidity
12536;BME280;6334;48.696;2.114;2023-05-12T00:02:11;100024.84;;;13.53;66.17
12536;BME280;6334;48.696;2.114;2023-05-12T00:07:16;100022.88;;;13.28;67.69
12536;BME280;6334;48.696;2.114;2023-05-12T00:09:48;100025.52;;;13.42;66.17
12536;BME280;6334;48.696;2.114;2023-05-12T00:12:44;100021.02;;;13.76;65.38
12536;BME280;6334;48.696;2.114;2023-05-12T00:16:09;100023.45;;;13.15;65.70
12536;BME280;6334;48.696;2.114;2023-05-12T00:18:43;100021.91;;;13.46;65.32
12536;BME280;6334;48.696;2.114;2023-05-12T00:21:17;100023.02;;;13.38;66.21
12536;BME280;6334;48.696;2.114;2023-05-12T00:23:47;100019.03;;;13.58;65.17
12536;BME280;6334;48.696;2.114;2023-05-12T00:26:18;100018.53;;;13.48;65.02
12536;BME280;6334;48.696;2.114;2023-05-12T00:28:49;100011.01;;;13.21;65.55
12536;BME280;6334;48.696;2.114;2023-05-12T00:31:19;100014.00;;;13.11;66.13
12536;BME280;6334;48.696;2.114;2023-05-12T00:33:50;100015.27;;;13.48;64.88
12536;BME280;6334;48.696;2.114;2023-05-12T00:36:20;100009.84;;;13.44;65.13
12536;BME280;6334;48.696;2.114;2023-05-12T00:38:50;100009.70;;;13.40;65.05
12536;BME280;6334;48.696;2.114;2023-05-12T00:41:22;100000.39;;;13.15;65.62
12536;BME280;6334;48.696;2.114;2023-05-12T00:46:26;100013.45;;;13.37;65.11
12536;BME280;6334;48.696;2.114;2023-05-12T00:48:56;100009.16;;;13.45;64.95
12536;BME280;6334;48.696;2.114;2023-05-12T00:51:29;100004.04;;;13.56;64.95
12536;BME280;6334;48.696;2.114;2023-05-12T00:56:32;100004.50;;;13.32;65.69
12536;BME280;6334;48.696;2.114;2023-05-12T00:59:02;100000.24;;;13.43;65.59
12536;BME280;6334;48.696;2.114;2023-05-12T01:01:33;100000.47;;;13.04;66.26
12536;BME280;6334;48.696;2.114;2023-05-12T01:06:38;100001.27;;;13.33;65.92
12536;BME280;6334;48.696;2.114;2023-05-12T01:09:07;100004.95;;;13.39;66.32
12536;BME280;6334;48.696;2.114;2023-05-12T01:11:38;100002.56;;;13.51;65.32
12536;BME280;6334;48.696;2.114;2023-05-12T01:16:52;99999.27;;;13.16;66.44
12536;BME280;6334;48.696;2.114;2023-05-12T01:22:16;99998.95;;;13.09;67.09
12536;BME280;6334;48.696;2.114;2023-05-12T01:27:21;99995.37;;;13.19;66.40
12536;BME280;6334;48.696;2.114;2023-05-12T01:29:53;99986.34;;;12.97;66.38
12536;BME280;6334;48.696;2.114;2023-05-12T01:32:23;99990.77;;;13.11;66.51
12536;BME280;6334;48.696;2.114;2023-05-12T01:34:53;99987.51;;;12.89;65.82
12536;BME280;6334;48.696;2.114;2023-05-12T01:37:23;99991.16;;;13.17;65.84
12536;BME280;6334;48.696;2.114;2023-05-12T01:39:53;99986.97;;;12.96;66.41
12536;BME280;6334;48.696;2.114;2023-05-12T01:42:24;99988.19;;;13.00;65.73
12536;BME280;6334;48.696;2.114;2023-05-12T01:44:53;99984.52;;;13.01;65.83
12536;BME280;6334;48.696;2.114;2023-05-12T01:47:25;99985.30;;;13.20;64.58
12536;BME280;6334;48.696;2.114;2023-05-12T01:49:56;99988.16;;;12.98;65.27
12536;BME280;6334;48.696;2.114;2023-05-12T01:52:26;99983.80;;;13.06;64.55
12536;BME280;6334;48.696;2.114;2023-05-12T01:54:56;99984.23;;;12.87;65.98
12536;BME280;6334;48.696;2.114;2023-05-12T01:57:26;99975.69;;;12.92;65.88
12536;BME280;6334;48.696;2.114;2023-05-12T01:59:55;99983.36;;;13.13;65.67
12536;BME280;6334;48.696;2.114;2023-05-12T02:02:26;99982.02;;;13.29;64.58
12536;BME280;6334;48.696;2.114;2023-05-12T02:04:56;99981.03;;;13.21;65.08
12536;BME280;6334;48.696;2.114;2023-05-12T02:07:26;99982.94;;;13.07;64.79
12536;BME280;6334;48.696;2.114;2023-05-12T02:09:58;99982.83;;;13.23;64.13
12536;BME280;6334;48.696;2.114;2023-05-12T02:12:29;99982.25;;;13.19;64.53
12536;BME280;6334;48.696;2.114;2023-05-12T02:17:33;99977.83;;;12.59;65.97
12536;BME280;6334;48.696;2.114;2023-05-12T02:20:03;99979.98;;;12.71;65.60
12536;BME280;6334;48.696;2.114;2023-05-12T02:22:33;99981.14;;;13.16;64.55
12536;BME280;6334;48.696;2.114;2023-05-12T02:27:38;99979.53;;;12.49;66.50
12536;BME280;6334;48.696;2.114;2023-05-12T02:30:08;99980.13;;;12.84;64.73
12536;BME280;6334;48.696;2.114;2023-05-12T02:32:47;99977.38;;;12.87;64.90
12536;BME280;6334;48.696;2.114;2023-05-12T02:35:36;99972.04;;;13.08;64.48
12536;BME280;6334;48.696;2.114;2023-05-12T02:38:12;99973.61;;;12.92;65.38
12536;BME280;6334;48.696;2.114;2023-05-12T02:40:57;99974.92;;;12.73;65.51
12536;BME280;6334;48.696;2.114;2023-05-12T02:46:16;99980.09;;;13.00;64.55
12536;BME280;6334;48.696;2.114;2023-05-12T02:48:46;99981.94;;;12.88;64.82
12536;BME280;6334;48.696;2.114;2023-05-12T02:51:17;99981.78;;;13.14;64.15
12536;BME280;6334;48.696;2.114;2023-05-12T02:56:22;99985.80;;;12.92;64.76
12536;BME280;6334;48.696;2.114;2023-05-12T02:58:54;99984.39;;;12.40;65.51
12536;BME280;6334;48.696;2.114;2023-05-12T03:01:24;99989.08;;;12.63;65.48
12536;BME280;6334;48.696;2.114;2023-05-12T03:03:54;99981.88;;;12.73;64.90
12536;BME280;6334;48.696;2.114;2023-05-12T03:06:23;99981.80;;;12.68;65.66
12536;BME280;6334;48.696;2.114;2023-05-12T03:08:53;99977.19;;;12.61;65.32
12536;BME280;6334;48.696;2.114;2023-05-12T03:11:23;99981.30;;;12.88;64.48
12536;BME280;6334;48.696;2.114;2023-05-12T03:16:27;99977.99;;;12.43;65.92
12536;BME280;6334;48.696;2.114;2023-05-12T03:18:56;99976.66;;;12.59;64.74
12536;BME280;6334;48.696;2.114;2023-05-12T03:21:27;99973.98;;;12.43;65.76
12536;BME280;6334;48.696;2.114;2023-05-12T03:24:01;99979.45;;;12.49;65.42
12536;BME280;6334;48.696;2.114;2023-05-12T03:26:30;99976.08;;;12.30;66.02
12536;BME280;6334;48.696;2.114;2023-05-12T03:29:01;99968.23;;;12.18;65.84
12536;BME280;6334;48.696;2.114;2023-05-12T03:31:31;99977.73;;;12.43;64.39
12536;BME280;6334;48.696;2.114;2023-05-12T03:36:40;99980.94;;;12.33;65.23
12536;BME280;6334;48.696;2.114;2023-05-12T03:39:18;99983.05;;;12.65;63.82
12536;BME280;6334;48.696;2.114;2023-05-12T03:41:55;99987.72;;;12.41;64.47
12536;BME280;6334;48.696;2.114;2023-05-12T03:47:06;99983.67;;;12.47;63.96
12536;BME280;6334;48.696;2.114;2023-05-12T03:49:48;99987.33;;;12.30;64.55
12536;BME280;6334;48.696;2.114;2023-05-12T03:52:22;99986.73;;;12.51;63.47
12536;BME280;6334;48.696;2.114;2023-05-12T03:54:51;99982.47;;;12.14;64.07
12536;BME280;6334;48.696;2.114;2023-05-12T03:57:21;99986.06;;;12.52;62.87
12536;BME280;6334;48.696;2.114;2023-05-12T03:59:51;99990.58;;;11.95;64.08
12536;BME280;6334;48.696;2.114;2023-05-12T04:02:22;99988.64;;;11.80;64.88
12536;BME280;6334;48.696;2.114;2023-05-12T04:07:27;99987.88;;;12.28;63.89
12536;BME280;6334;48.696;2.114;2023-05-12T04:09:58;99991.44;;;12.43;62.72
12536;BME280;6334;48.696;2.114;2023-05-12T04:12:28;99988.98;;;12.28;63.42
12536;BME280;6334;48.696;2.114;2023-05-12T04:17:32;99982.92;;;12.29;62.07
12536;BME280;6334;48.696;2.114;2023-05-12T04:20:03;99988.45;;;12.36;62.27
12536;BME280;6334;48.696;2.114;2023-05-12T04:22:33;99989.92;;;12.04;63.63
12536;BME280;6334;48.696;2.114;2023-05-12T04:27:38;99993.31;;;11.76;62.35
12536;BME280;6334;48.696;2.114;2023-05-12T04:30:09;99990.69;;;12.25;61.81
12536;BME280;6334;48.696;2.114;2023-05-12T04:32:39;99990.35;;;12.25;60.70
12536;BME280;6334;48.696;2.114;2023-05-12T04:35:10;99996.20;;;11.79;62.37
12536;BME280;6334;48.696;2.114;2023-05-12T04:37:40;99996.38;;;12.24;61.81
12536;BME280;6334;48.696;2.114;2023-05-12T04:40:10;99989.27;;;12.25;62.12
12536;BME280;6334;48.696;2.114;2023-05-12T04:42:40;99994.80;;;12.41;60.31
12536;BME280;6334;48.696;2.114;2023-05-12T04:47:45;100004.25;;;12.18;60.97
12536;BME280;6334;48.696;2.114;2023-05-12T04:50:15;100007.51;;;12.04;61.91
12536;BME280;6334;48.696;2.114;2023-05-12T04:52:46;100005.49;;;11.80;62.56
12536;BME280;6334;48.696;2.114;2023-05-12T04:55:16;100006.77;;;12.13;61.92
12536;BME280;6334;48.696;2.114;2023-05-12T04:57:46;100013.06;;;12.23;61.20
12536;BME280;6334;48.696;2.114;2023-05-12T05:00:17;100010.77;;;12.21;61.59
12536;BME280;6334;48.696;2.114;2023-05-12T05:02:47;100021.38;;;12.06;63.27
12536;BME280;6334;48.696;2.114;2023-05-12T05:07:52;100017.34;;;12.61;60.70
12536;BME280;6334;48.696;2.114;2023-05-12T05:10:22;100023.92;;;12.44;62.18
12536;BME280;6334;48.696;2.114;2023-05-12T05:12:53;100029.75;;;12.19;62.50
12536;BME280;6334;48.696;2.114;2023-05-12T05:17:57;100033.64;;;12.21;62.32
12536;BME280;6334;48.696;2.114;2023-05-12T05:20:28;100029.66;;;12.45;62.10
12536;BME280;6334;48.696;2.114;2023-05-12T05:22:58;100034.31;;;11.94;63.56
12536;BME280;6334;48.696;2.114;2023-05-12T05:25:29;100033.19;;;12.49;63.13
12536;BME280;6334;48.696;2.114;2023-05-12T05:27:58;100037.34;;;12.06;64.19
12536;BME280;6334;48.696;2.114;2023-05-12T05:30:29;100036.86;;;12.36;63.57
12536;BME280;6334;48.696;2.114;2023-05-12T05:32:59;100033.44;;;12.36;63.58
12536;BME280;6334;48.696;2.114;2023-05-12T05:35:29;100039.25;;;12.14;64.02
12536;BME280;6334;48.696;2.114;2023-05-12T05:37:59;100038.49;;;12.30;63.32
12536;BME280;6334;48.696;2.114;2023-05-12T05:40:30;100034.64;;;11.94;63.47
12536;BME280;6334;48.696;2.114;2023-05-12T05:43:00;100040.46;;;11.83;64.29
12536;BME280;6334;48.696;2.114;2023-05-12T05:45:29;100047.89;;;12.13;68.16
12536;BME280;6334;48.696;2.114;2023-05-12T05:48:00;100040.41;;;11.85;63.65
12536;BME280;6334;48.696;2.114;2023-05-12T05:50:31;100047.66;;;12.17;63.64
12536;BME280;6334;48.696;2.114;2023-05-12T05:53:02;100046.63;;;12.03;64.09
12536;BME280;6334;48.696;2.114;2023-05-12T05:55:32;100043.38;;;12.69;62.56
12536;BME280;6334;48.696;2.114;2023-05-12T05:58:03;100041.63;;;12.57;63.02
12536;BME280;6334;48.696;2.114;2023-05-12T06:00:33;100040.48;;;12.73;61.68
12536;BME280;6334;48.696;2.114;2023-05-12T06:03:04;100031.78;;;12.85;62.22
12536;BME280;6334;48.696;2.114;2023-05-12T06:05:34;100037.98;;;12.67;62.39
12536;BME280;6334;48.696;2.114;2023-05-12T06:08:05;100037.58;;;12.38;62.87
12536;BME280;6334;48.696;2.114;2023-05-12T06:10:35;100038.71;;;12.65;62.59
12536;BME280;6334;48.696;2.114;2023-05-12T06:13:05;100036.50;;;12.75;62.42
12536;BME280;6334;48.696;2.114;2023-05-12T06:15:37;100034.52;;;12.62;64.58
12536;BME280;6334;48.696;2.114;2023-05-12T06:18:06;100031.47;;;12.64;62.93
12536;BME280;6334;48.696;2.114;2023-05-12T06:20:37;100032.40;;;13.14;61.00
12536;BME280;6334;48.696;2.114;2023-05-12T06:23:07;100034.35;;;12.94;61.32
12536;BME280;6334;48.696;2.114;2023-05-12T06:25:38;100037.48;;;12.83;58.96
12536;BME280;6334;48.696;2.114;2023-05-12T06:28:08;100034.59;;;12.74;61.62
12536;BME280;6334;48.696;2.114;2023-05-12T06:30:39;100033.10;;;12.58;60.03
12536;BME280;6334;48.696;2.114;2023-05-12T06:33:09;100035.81;;;12.92;59.18
12536;BME280;6334;48.696;2.114;2023-05-12T06:35:40;100038.36;;;12.86;57.33
12536;BME280;6334;48.696;2.114;2023-05-12T06:38:10;100037.73;;;12.96;56.59
12536;BME280;6334;48.696;2.114;2023-05-12T06:40:40;100040.91;;;13.26;57.52
12536;BME280;6334;48.696;2.114;2023-05-12T06:43:11;100037.68;;;13.13;57.83
12536;BME280;6334;48.696;2.114;2023-05-12T06:45:42;100043.59;;;13.48;57.67
12536;BME280;6334;48.696;2.114;2023-05-12T06:48:12;100043.08;;;13.38;55.95
12536;BME280;6334;48.696;2.114;2023-05-12T06:50:42;100040.49;;;13.11;55.60
12536;BME280;6334;48.696;2.114;2023-05-12T06:53:13;100042.64;;;13.31;56.55
12536;BME280;6334;48.696;2.114;2023-05-12T06:55:43;100046.06;;;13.57;56.77
12536;BME280;6334;48.696;2.114;2023-05-12T06:58:14;100039.77;;;13.75;55.11
12536;BME280;6334;48.696;2.114;2023-05-12T07:00:44;100045.03;;;14.18;55.47
12536;BME280;6334;48.696;2.114;2023-05-12T07:03:15;100043.44;;;14.11;57.11
12536;BME280;6334;48.696;2.114;2023-05-12T07:05:45;100043.22;;;14.09;54.47
12536;BME280;6334;48.696;2.114;2023-05-12T07:08:15;100039.42;;;14.24;56.57
12536;BME280;6334;48.696;2.114;2023-05-12T07:10:46;100045.94;;;13.68;56.55
12536;BME280;6334;48.696;2.114;2023-05-12T07:13:16;100044.16;;;13.66;56.98
12536;BME280;6334;48.696;2.114;2023-05-12T07:15:47;100034.25;;;14.13;56.24
12536;BME280;6334;48.696;2.114;2023-05-12T07:18:17;100038.70;;;14.09;56.60
12536;BME280;6334;48.696;2.114;2023-05-12T07:20:48;100032.28;;;14.10;56.39
12536;BME280;6334;48.696;2.114;2023-05-12T07:23:18;100033.51;;;14.29;56.03
12536;BME280;6334;48.696;2.114;2023-05-12T07:25:49;100032.16;;;14.17;54.67
12536;BME280;6334;48.696;2.114;2023-05-12T07:28:19;100029.22;;;14.21;55.66
12536;BME280;6334;48.696;2.114;2023-05-12T07:30:50;100026.30;;;14.51;56.99
12536;BME280;6334;48.696;2.114;2023-05-12T07:33:20;100031.78;;;14.15;58.49
12536;BME280;6334;48.696;2.114;2023-05-12T07:35:51;100029.03;;;14.67;57.69
12536;BME280;6334;48.696;2.114;2023-05-12T07:38:21;100027.02;;;14.82;57.73
12536;BME280;6334;48.696;2.114;2023-05-12T07:40:52;100031.55;;;14.82;58.79
12536;BME280;6334;48.696;2.114;2023-05-12T07:43:22;100028.67;;;14.77;57.84
12536;BME280;6334;48.696;2.114;2023-05-12T07:45:53;100030.98;;;14.75;58.75
12536;BME280;6334;48.696;2.114;2023-05-12T07:48:23;100026.11;;;14.93;58.03
12536;BME280;6334;48.696;2.114;2023-05-12T07:50:54;100027.75;;;14.47;58.14
12536;BME280;6334;48.696;2.114;2023-05-12T07:53:24;100021.36;;;14.35;58.94
12536;BME280;6334;48.696;2.114;2023-05-12T07:55:54;100024.58;;;14.46;58.84
12536;BME280;6334;48.696;2.114;2023-05-12T07:58:25;100025.01;;;14.67;59.39
12536;BME280;6334;48.696;2.114;2023-05-12T08:00:55;100026.45;;;14.48;59.89
12536;BME280;6334;48.696;2.114;2023-05-12T08:03:26;100027.98;;;14.47;59.71
12536;BME280;6334;48.696;2.114;2023-05-12T08:05:56;100021.95;;;14.51;59.55
12536;BME280;6334;48.696;2.114;2023-05-12T08:08:27;100024.42;;;14.84;59.50
12536;BME280;6334;48.696;2.114;2023-05-12T08:10:57;100006.10;;;14.48;59.31
12536;BME280;6334;48.696;2.114;2023-05-12T08:13:28;100021.27;;;15.06;59.23
12536;BME280;6334;48.696;2.114;2023-05-12T08:15:58;100027.33;;;15.24;58.40
12536;BME280;6334;48.696;2.114;2023-05-12T08:18:29;100028.42;;;15.02;60.36
12536;BME280;6334;48.696;2.114;2023-05-12T08:20:59;100021.64;;;15.79;59.04
12536;BME280;6334;48.696;2.114;2023-05-12T08:23:29;100025.12;;;15.41;59.20
12536;BME280;6334;48.696;2.114;2023-05-12T08:26:00;100024.91;;;15.27;59.64
12536;BME280;6334;48.696;2.114;2023-05-12T08:28:31;100036.59;;;15.60;59.39
12536;BME280;6334;48.696;2.114;2023-05-12T08:31:01;100031.93;;;15.53;59.40
12536;BME280;6334;48.696;2.114;2023-05-12T08:33:35;100032.64;;;15.68;57.32
12536;BME280;6334;48.696;2.114;2023-05-12T08:36:05;100035.05;;;15.84;58.64
12536;BME280;6334;48.696;2.114;2023-05-12T08:38:36;100030.43;;;16.31;57.87
12536;BME280;6334;48.696;2.114;2023-05-12T08:41:19;100029.23;;;16.62;56.54
12536;BME280;6334;48.696;2.114;2023-05-12T08:43:49;100033.93;;;16.13;57.60
12536;BME280;6334;48.696;2.114;2023-05-12T08:46:19;100029.69;;;15.82;58.51
12536;BME280;6334;48.696;2.114;2023-05-12T08:48:49;100037.27;;;16.11;57.83
12536;BME280;6334;48.696;2.114;2023-05-12T08:51:20;100043.23;;;15.96;58.72
12536;BME280;6334;48.696;2.114;2023-05-12T08:53:50;100039.47;;;16.05;57.60
12536;BME280;6334;48.696;2.114;2023-05-12T08:56:21;100045.58;;;16.15;58.23
12536;BME280;6334;48.696;2.114;2023-05-12T08:58:51;100048.13;;;15.83;58.53
12536;BME280;6334;48.696;2.114;2023-05-12T09:01:22;100047.44;;;15.57;58.98
12536;BME280;6334;48.696;2.114;2023-05-12T09:03:52;100047.31;;;16.07;58.42
12536;BME280;6334;48.696;2.114;2023-05-12T09:06:23;100051.34;;;15.99;58.32
12536;BME280;6334;48.696;2.114;2023-05-12T09:08:53;100057.53;;;15.74;58.99
12536;BME280;6334;48.696;2.114;2023-05-12T09:11:23;100052.41;;;16.17;58.51
12536;BME280;6334;48.696;2.114;2023-05-12T09:14:01;100054.12;;;15.87;58.77
12536;BME280;6334;48.696;2.114;2023-05-12T09:16:41;100061.35;;;15.67;59.82
12536;BME280;6334;48.696;2.114;2023-05-12T09:19:01;100051.13;;;15.25;60.86
12536;BME280;6334;48.696;2.114;2023-05-12T09:21:31;100052.56;;;15.45;60.82
12536;BME280;6334;48.696;2.114;2023-05-12T09:24:02;100055.56;;;15.61;59.81
12536;BME280;6334;48.696;2.114;2023-05-12T09:26:54;100060.91;;;15.65;59.76
12536;BME280;6334;48.696;2.114;2023-05-12T09:29:03;100057.16;;;15.78;60.24
12536;BME280;6334;48.696;2.114;2023-05-12T09:31:33;100057.27;;;15.31;61.27
12536;BME280;6334;48.696;2.114;2023-05-12T09:34:09;100054.23;;;15.40;61.35
12536;BME280;6334;48.696;2.114;2023-05-12T09:36:40;100053.56;;;14.90;62.42
12536;BME280;6334;48.696;2.114;2023-05-12T09:39:10;100051.41;;;14.99;62.47
12536;BME280;6334;48.696;2.114;2023-05-12T09:41:41;100059.11;;;15.02;62.77
12536;BME280;6334;48.696;2.114;2023-05-12T09:44:13;100056.04;;;14.66;63.19
12536;BME280;6334;48.696;2.114;2023-05-12T09:46:41;100055.56;;;14.80;63.16
12536;BME280;6334;48.696;2.114;2023-05-12T09:49:16;100057.84;;;14.82;63.17
12536;BME280;6334;48.696;2.114;2023-05-12T09:51:42;100051.07;;;14.93;63.50
12536;BME280;6334;48.696;2.114;2023-05-12T09:54:22;100050.33;;;15.04;63.25
12536;BME280;6334;48.696;2.114;2023-05-12T09:56:43;100049.97;;;14.93;64.31
12536;BME280;6334;48.696;2.114;2023-05-12T09:59:14;100049.80;;;15.08;64.00
12536;BME280;6334;48.696;2.114;2023-05-12T10:01:44;100053.58;;;14.96;64.53
12536;BME280;6334;48.696;2.114;2023-05-12T10:04:15;100053.15;;;14.64;66.05
12536;BME280;6334;48.696;2.114;2023-05-12T10:06:45;100057.21;;;14.37;66.51
12536;BME280;6334;48.696;2.114;2023-05-12T10:09:19;100055.52;;;14.60;65.88
12536;BME280;6334;48.696;2.114;2023-05-12T10:11:49;100055.45;;;14.38;66.45
12536;BME280;6334;48.696;2.114;2023-05-12T10:14:20;100061.42;;;14.24;67.27
12536;BME280;6334;48.696;2.114;2023-05-12T10:16:50;100056.95;;;14.10;69.11
12536;BME280;6334;48.696;2.114;2023-05-12T10:19:20;100057.77;;;14.08;69.08
12536;BME280;6334;48.696;2.114;2023-05-12T10:21:51;100059.70;;;13.97;70.24
12536;BME280;6334;48.696;2.114;2023-05-12T10:24:21;100057.86;;;13.91;71.18
12536;BME280;6334;48.696;2.114;2023-05-12T10:26:56;100056.88;;;13.99;69.14
12536;BME280;6334;48.696;2.114;2023-05-12T10:29:26;100057.42;;;14.10;70.81
12536;BME280;6334;48.696;2.114;2023-05-12T10:31:57;100060.33;;;14.12;70.29
12536;BME280;6334;48.696;2.114;2023-05-12T10:34:33;100067.58;;;14.19;70.61
12536;BME280;6334;48.696;2.114;2023-05-12T10:37:00;100062.14;;;13.63;71.05
12536;BME280;6334;48.696;2.114;2023-05-12T10:39:30;100062.06;;;14.25;70.20
12536;BME280;6334;48.696;2.114;2023-05-12T10:42:07;100057.63;;;14.16;72.77
12536;BME280;6334;48.696;2.114;2023-05-12T10:44:46;100060.45;;;14.10;71.56
12536;BME280;6334;48.696;2.114;2023-05-12T10:47:13;100058.89;;;14.63;71.25
12536;BME280;6334;48.696;2.114;2023-05-12T10:49:44;100056.31;;;14.65;68.70
12536;BME280;6334;48.696;2.114;2023-05-12T10:52:18;100058.41;;;15.06;68.97
12536;BME280;6334;48.696;2.114;2023-05-12T10:54:44;100052.75;;;15.04;69.56
12536;BME280;6334;48.696;2.114;2023-05-12T10:57:18;100051.30;;;14.62;71.58
12536;BME280;6334;48.696;2.114;2023-05-12T10:59:58;100054.46;;;14.86;68.08
12536;BME280;6334;48.696;2.114;2023-05-12T11:02:27;100050.87;;;14.55;68.57
12536;BME280;6334;48.696;2.114;2023-05-12T11:05:01;100053.39;;;14.99;67.11
12536;BME280;6334;48.696;2.114;2023-05-12T11:07:31;100051.43;;;14.87;67.93
12536;BME280;6334;48.696;2.114;2023-05-12T11:10:01;100050.59;;;14.87;67.43
12536;BME280;6334;48.696;2.114;2023-05-12T11:12:32;100052.43;;;14.92;67.53
12536;BME280;6334;48.696;2.114;2023-05-12T11:15:02;100050.42;;;15.15;66.30
12536;BME280;6334;48.696;2.114;2023-05-12T11:17:32;100050.43;;;14.50;68.32
12536;BME280;6334;48.696;2.114;2023-05-12T11:20:03;100053.72;;;14.80;67.87
12536;BME280;6334;48.696;2.114;2023-05-12T11:22:33;100049.30;;;14.52;68.34
12536;BME280;6334;48.696;2.114;2023-05-12T11:25:10;100048.09;;;15.00;67.97
12536;BME280;6334;48.696;2.114;2023-05-12T11:27:49;100050.41;;;14.99;69.64
12536;BME280;6334;48.696;2.114;2023-05-12T11:30:10;100043.24;;;15.35;66.53
12536;BME280;6334;48.696;2.114;2023-05-12T11:32:41;100049.47;;;15.24;66.14
12536;BME280;6334;48.696;2.114;2023-05-12T11:35:11;100046.61;;;14.89;68.01
12536;BME280;6334;48.696;2.114;2023-05-12T11:37:42;100048.03;;;15.11;65.81
12536;BME280;6334;48.696;2.114;2023-05-12T11:40:14;100040.46;;;15.03;67.07
12536;BME280;6334;48.696;2.114;2023-05-12T11:42:42;100044.98;;;15.39;66.41
12536;BME280;6334;48.696;2.114;2023-05-12T11:45:19;100044.92;;;15.17;66.59
12536;BME280;6334;48.696;2.114;2023-05-12T11:47:49;100040.94;;;15.40;65.60
12536;BME280;6334;48.696;2.114;2023-05-12T11:50:20;100039.16;;;15.13;66.78
12536;BME280;6334;48.696;2.114;2023-05-12T11:52:50;100038.02;;;15.28;67.36
12536;BME280;6334;48.696;2.114;2023-05-12T11:55:21;100030.59;;;15.16;65.67
12536;BME280;6334;48.696;2.114;2023-05-12T11:57:58;100033.08;;;15.20;65.09
12536;BME280;6334;48.696;2.114;2023-05-12T12:00:28;100033.44;;;15.32;63.95
12536;BME280;6334;48.696;2.114;2023-05-12T12:03:10;100034.89;;;15.37;65.20
12536;BME280;6334;48.696;2.114;2023-05-12T12:05:39;100028.89;;;15.15;65.43
12536;BME280;6334;48.696;2.114;2023-05-12T12:08:10;100030.08;;;14.83;65.11
12536;BME280;6334;48.696;2.114;2023-05-12T12:10:42;100035.50;;;14.81;65.69
12536;BME280;6334;48.696;2.114;2023-05-12T12:13:18;100035.94;;;14.75;65.28
12536;BME280;6334;48.696;2.114;2023-05-12T12:15:43;100030.70;;;15.07;63.89
12536;BME280;6334;48.696;2.114;2023-05-12T12:18:13;100026.81;;;14.69;63.38
12536;BME280;6334;48.696;2.114;2023-05-12T12:20:45;100032.25;;;15.62;62.89
12536;BME280;6334;48.696;2.114;2023-05-12T12:23:14;100028.53;;;15.86;62.33
12536;BME280;6334;48.696;2.114;2023-05-12T12:25:45;100020.58;;;16.27;61.40
12536;BME280;6334;48.696;2.114;2023-05-12T12:28:15;100019.73;;;15.72;63.39
12536;BME280;6334;48.696;2.114;2023-05-12T12:30:45;100016.32;;;15.62;63.17
12536;BME280;6334;48.696;2.114;2023-05-12T12:33:16;100023.62;;;15.28;61.96
12536;BME280;6334;48.696;2.114;2023-05-12T12:35:46;100019.88;;;15.21;62.94
12536;BME280;6334;48.696;2.114;2023-05-12T12:38:17;100019.61;;;14.97;62.85
12536;BME280;6334;48.696;2.114;2023-05-12T12:40:47;100016.48;;;14.93;64.07
12536;BME280;6334;48.696;2.114;2023-05-12T12:43:18;100024.59;;;14.68;63.93
12536;BME280;6334;48.696;2.114;2023-05-12T12:45:49;100031.92;;;14.77;64.79
12536;BME280;6334;48.696;2.114;2023-05-12T12:48:20;100028.61;;;14.74;64.83
12536;BME280;6334;48.696;2.114;2023-05-12T12:50:50;100027.89;;;14.41;66.18
12536;BME280;6334;48.696;2.114;2023-05-12T12:53:21;100025.45;;;14.86;65.40
12536;BME280;6334;48.696;2.114;2023-05-12T12:55:51;100033.09;;;14.88;65.49
12536;BME280;6334;48.696;2.114;2023-05-12T12:58:22;100027.39;;;14.60;65.73
12536;BME280;6334;48.696;2.114;2023-05-12T13:00:52;100034.34;;;14.56;66.19
12536;BME280;6334;48.696;2.114;2023-05-12T13:03:22;100034.17;;;14.47;66.46
12536;BME280;6334;48.696;2.114;2023-05-12T13:05:53;100029.81;;;14.54;66.14
12536;BME280;6334;48.696;2.114;2023-05-12T13:08:23;100032.86;;;14.40;66.35
12536;BME280;6334;48.696;2.114;2023-05-12T13:10:54;100038.16;;;14.20;67.40
12536;BME280;6334;48.696;2.114;2023-05-12T13:13:24;100037.87;;;14.07;66.79
12536;BME280;6334;48.696;2.114;2023-05-12T13:15:56;100038.09;;;14.20;67.07
12536;BME280;6334;48.696;2.114;2023-05-12T13:18:26;100032.09;;;14.35;65.27
12536;BME280;6334;48.696;2.114;2023-05-12T13:20:57;100037.19;;;14.22;65.19
12536;BME280;6334;48.696;2.114;2023-05-12T13:23:27;100034.25;;;14.21;65.10
12536;BME280;6334;48.696;2.114;2023-05-12T13:25:58;100033.52;;;14.23;65.42
12536;BME280;6334;48.696;2.114;2023-05-12T13:28:28;100039.47;;;14.19;66.54
12536;BME280;6334;48.696;2.114;2023-05-12T13:30:59;100036.32;;;14.42;65.16
12536;BME280;6334;48.696;2.114;2023-05-12T13:35:59;100031.53;;;14.71;65.09
12536;BME280;6334;48.696;2.114;2023-05-12T13:38:29;100034.45;;;14.80;65.05
12536;BME280;6334;48.696;2.114;2023-05-12T13:41:00;100033.05;;;14.87;65.26
12536;BME280;6334;48.696;2.114;2023-05-12T13:43:30;100028.95;;;14.55;67.19
12536;BME280;6334;48.696;2.114;2023-05-12T13:46:02;100033.70;;;14.94;64.52
12536;BME280;6334;48.696;2.114;2023-05-12T13:48:32;100031.61;;;14.62;65.28
12536;BME280;6334;48.696;2.114;2023-05-12T13:51:03;100033.70;;;14.83;63.51
12536;BME280;6334;48.696;2.114;2023-05-12T13:53:33;100032.76;;;14.57;64.86
12536;BME280;6334;48.696;2.114;2023-05-12T13:56:04;100027.77;;;14.59;64.54
12536;BME280;6334;48.696;2.114;2023-05-12T13:58:34;100030.94;;;14.80;64.43
12536;BME280;6334;48.696;2.114;2023-05-12T14:01:05;100027.09;;;14.62;64.64
12536;BME280;6334;48.696;2.114;2023-05-12T14:03:35;100025.14;;;14.74;64.51
12536;BME280;6334;48.696;2.114;2023-05-12T14:06:06;100025.55;;;14.80;64.09
12536;BME280;6334;48.696;2.114;2023-05-12T14:08:36;100025.83;;;14.63;65.66
12536;BME280;6334;48.696;2.114;2023-05-12T14:11:07;100023.78;;;14.50;65.35
12536;BME280;6334;48.696;2.114;2023-05-12T14:13:37;100025.83;;;14.49;65.41
12536;BME280;6334;48.696;2.114;2023-05-12T14:16:08;100027.67;;;14.09;66.85
12536;BME280;6334;48.696;2.114;2023-05-12T14:18:38;100028.58;;;14.10;68.03